sensor_id;sensor_type;location;lat;lon;timestamp;pressure;altitude;pressure_sealevel;temperature;humidity
26563;BME280;14217;50.986;5.826;2024-03-02T00:01:19;99294.66;;;18.13;44.01
26563;BME280;14217;50.986;5.826;2024-03-02T00:06:21;99284.81;;;18.15;43.84
26563;BME280;14217;50.986;5.826;2024-03-02T00:11:23;99292.88;;;18.13;44.00
26563;BME280;14217;50.986;5.826;2024-03-02T00:16:30;99299.97;;;18.13;43.94
26563;BME280;14217;50.986;5.826;2024-03-02T00:21:33;99293.50;;;18.17;43.70
26563;BME280;14217;50.986;5.826;2024-03-02T00:26:35;99287.34;;;18.16;43.46
26563;BME280;14217;50.986;5.826;2024-03-02T00:31:39;99284.69;;;18.03;44.08
26563;BME280;14217;50.986;5.826;2024-03-02T00:36:41;99299.13;;;18.12;43.58
26563;BME280;14217;50.986;5.826;2024-03-02T00:41:44;99304.00;;;18.18;43.73
26563;BME280;14217;50.986;5.826;2024-03-02T00:46:46;99308.66;;;18.15;43.71
26563;BME280;14217;50.986;5.826;2024-03-02T00:51:50;99323.06;;;18.11;43.70
26563;BME280;14217;50.986;5.826;2024-03-02T00:56:53;99334.63;;;18.10;43.56
26563;BME280;14217;50.986;5.826;2024-03-02T01:01:57;99339.84;;;18.11;43.83
26563;BME280;14217;50.986;5.826;2024-03-02T01:06:59;99396.78;;;18.18;43.29
26563;BME280;14217;50.986;5.826;2024-03-02T01:12:02;99403.25;;;18.14;43.50
26563;BME280;14217;50.986;5.826;2024-03-02T01:17:04;99402.78;;;18.07;43.44
26563;BME280;14217;50.986;5.826;2024-03-02T01:22:06;99401.66;;;18.12;43.39
26563;BME280;14217;50.986;5.826;2024-03-02T01:27:09;99409.28;;;18.16;43.24
26563;BME280;14217;50.986;5.826;2024-03-02T01:32:11;99406.84;;;18.13;43.51
26563;BME280;14217;50.986;5.826;2024-03-02T01:37:13;99405.03;;;18.14;43.37
26563;BME280;14217;50.986;5.826;2024-03-02T01:42:15;99405.88;;;18.14;43.49
26563;BME280;14217;50.986;5.826;2024-03-02T01:47:17;99411.41;;;18.11;43.34
26563;BME280;14217;50.986;5.826;2024-03-02T01:52:20;99411.09;;;18.16;43.25
26563;BME280;14217;50.986;5.826;2024-03-02T01:57:22;99427.41;;;18.10;43.48
26563;BME280;14217;50.986;5.826;2024-03-02T02:02:24;99424.00;;;18.07;43.48
26563;BME280;14217;50.986;5.826;2024-03-02T02:07:26;99414.25;;;18.08;43.79
26563;BME280;14217;50.986;5.826;2024-03-02T02:12:28;99423.03;;;18.08;43.72
26563;BME280;14217;50.986;5.826;2024-03-02T02:17:30;99404.78;;;18.04;43.83
26563;BME280;14217;50.986;5.826;2024-03-02T02:22:32;99393.78;;;18.10;43.52
26563;BME280;14217;50.986;5.826;2024-03-02T02:27:34;99395.03;;;18.04;43.80
26563;BME280;14217;50.986;5.826;2024-03-02T02:32:37;99386.31;;;18.02;43.73
26563;BME280;14217;50.986;5.826;2024-03-02T02:37:40;99385.19;;;18.06;43.56
26563;BME280;14217;50.986;5.826;2024-03-02T02:42:42;99377.97;;;18.08;43.67
26563;BME280;14217;50.986;5.826;2024-03-02T02:47:44;99376.81;;;18.13;43.68
26563;BME280;14217;50.986;5.826;2024-03-02T02:52:47;99362.78;;;17.98;43.70
26563;BME280;14217;50.986;5.826;2024-03-02T02:57:49;99357.03;;;17.91;43.86
26563;BME280;14217;50.986;5.826;2024-03-02T03:02:51;99349.00;;;17.93;43.87
26563;BME280;14217;50.986;5.826;2024-03-02T03:07:53;99374.66;;;17.92;44.26
26563;BME280;14217;50.986;5.826;2024-03-02T03:12:55;99382.22;;;17.98;43.77
26563;BME280;14217;50.986;5.826;2024-03-02T03:17:58;99372.75;;;17.94;44.11
26563;BME280;14217;50.986;5.826;2024-03-02T03:23:00;99367.47;;;17.94;44.06
26563;BME280;14217;50.986;5.826;2024-03-02T03:28:03;99369.06;;;17.97;44.08
26563;BME280;14217;50.986;5.826;2024-03-02T03:33:05;99365.03;;;18.04;43.96
26563;BME280;14217;50.986;5.826;2024-03-02T03:38:08;99361.69;;;17.87;44.03
26563;BME280;14217;50.986;5.826;2024-03-02T03:43:10;99364.34;;;17.87;44.26
26563;BME280;14217;50.986;5.826;2024-03-02T03:48:12;99371.38;;;18.01;43.92
26563;BME280;14217;50.986;5.826;2024-03-02T03:53:14;99372.94;;;17.91;44.05
26563;BME280;14217;50.986;5.826;2024-03-02T03:58:16;99373.19;;;18.01;44.04
26563;BME280;14217;50.986;5.826;2024-03-02T04:03:23;99372.75;;;17.94;44.17
26563;BME280;14217;50.986;5.826;2024-03-02T04:08:25;99377.44;;;18.03;43.83
26563;BME280;14217;50.986;5.826;2024-03-02T04:13:27;99372.53;;;17.97;44.07
26563;BME280;14217;50.986;5.826;2024-03-02T04:18:30;99383.16;;;17.97;44.08
26563;BME280;14217;50.986;5.826;2024-03-02T04:23:32;99368.97;;;17.98;44.11
26563;BME280;14217;50.986;5.826;2024-03-02T04:28:34;99370.63;;;17.99;44.21
26563;BME280;14217;50.986;5.826;2024-03-02T04:33:36;99381.84;;;17.90;44.07
26563;BME280;14217;50.986;5.826;2024-03-02T04:38:39;99371.13;;;17.92;44.19
26563;BME280;14217;50.986;5.826;2024-03-02T04:43:41;99371.44;;;17.87;44.20
26563;BME280;14217;50.986;5.826;2024-03-02T04:48:43;99373.81;;;18.04;43.90
26563;BME280;14217;50.986;5.826;2024-03-02T04:53:45;99382.94;;;18.00;44.19
26563;BME280;14217;50.986;5.826;2024-03-02T04:58:48;99383.50;;;18.05;44.07
26563;BME280;14217;50.986;5.826;2024-03-02T05:03:50;99382.59;;;17.92;44.06
26563;BME280;14217;50.986;5.826;2024-03-02T05:08:52;99385.56;;;18.00;44.27
26563;BME280;14217;50.986;5.826;2024-03-02T05:13:54;99384.84;;;17.98;44.19
26563;BME280;14217;50.986;5.826;2024-03-02T05:18:56;99393.28;;;17.91;44.18
26563;BME280;14217;50.986;5.826;2024-03-02T05:23:59;99408.50;;;18.01;44.15
26563;BME280;14217;50.986;5.826;2024-03-02T05:29:01;99409.25;;;18.03;43.97
26563;BME280;14217;50.986;5.826;2024-03-02T05:34:03;99404.69;;;18.05;44.00
26563;BME280;14217;50.986;5.826;2024-03-02T05:39:05;99405.31;;;17.96;44.09
26563;BME280;14217;50.986;5.826;2024-03-02T05:44:10;99417.06;;;17.92;44.07
26563;BME280;14217;50.986;5.826;2024-03-02T05:49:13;99415.16;;;17.80;44.60
26563;BME280;14217;50.986;5.826;2024-03-02T05:54:15;99426.84;;;18.04;43.88
26563;BME280;14217;50.986;5.826;2024-03-02T05:59:17;99421.13;;;18.11;43.74
26563;BME280;14217;50.986;5.826;2024-03-02T06:04:19;99437.97;;;17.82;44.63
26563;BME280;14217;50.986;5.826;2024-03-02T06:09:21;99432.06;;;17.92;44.44
26563;BME280;14217;50.986;5.826;2024-03-02T06:14:25;99439.25;;;18.04;44.13
26563;BME280;14217;50.986;5.826;2024-03-02T06:19:27;99451.28;;;17.95;44.30
26563;BME280;14217;50.986;5.826;2024-03-02T06:24:30;99457.69;;;18.05;43.95
26563;BME280;14217;50.986;5.826;2024-03-02T06:29:33;99450.94;;;17.87;44.57
26563;BME280;14217;50.986;5.826;2024-03-02T06:34:35;99461.28;;;18.04;44.18
26563;BME280;14217;50.986;5.826;2024-03-02T06:39:38;99460.06;;;17.81;44.75
26563;BME280;14217;50.986;5.826;2024-03-02T06:44:40;99471.19;;;17.88;44.55
26563;BME280;14217;50.986;5.826;2024-03-02T06:49:42;99483.94;;;17.96;44.46
26563;BME280;14217;50.986;5.826;2024-03-02T06:54:44;99486.78;;;17.93;44.43
26563;BME280;14217;50.986;5.826;2024-03-02T06:59:47;99484.81;;;17.96;44.35
26563;BME280;14217;50.986;5.826;2024-03-02T07:04:52;99485.94;;;17.92;44.38
26563;BME280;14217;50.986;5.826;2024-03-02T07:09:54;99496.34;;;17.95;44.14
26563;BME280;14217;50.986;5.826;2024-03-02T07:14:56;99491.31;;;18.05;43.92
26563;BME280;14217;50.986;5.826;2024-03-02T07:20:04;99492.34;;;18.02;44.22
26563;BME280;14217;50.986;5.826;2024-03-02T07:25:08;99495.75;;;18.04;44.12
26563;BME280;14217;50.986;5.826;2024-03-02T07:30:30;99502.66;;;18.07;44.09
26563;BME280;14217;50.986;5.826;2024-03-02T07:35:34;99509.59;;;17.95;44.41
26563;BME280;14217;50.986;5.826;2024-03-02T07:40:36;99511.75;;;18.03;44.25
26563;BME280;14217;50.986;5.826;2024-03-02T07:45:38;99516.47;;;17.98;44.90
26563;BME280;14217;50.986;5.826;2024-03-02T07:50:41;99505.41;;;18.05;44.72
26563;BME280;14217;50.986;5.826;2024-03-02T07:55:43;99511.75;;;18.03;44.84
26563;BME280;14217;50.986;5.826;2024-03-02T08:00:45;99511.78;;;17.88;46.13
26563;BME280;14217;50.986;5.826;2024-03-02T08:05:48;99520.00;;;17.98;46.27
26563;BME280;14217;50.986;5.826;2024-03-02T08:10:50;99522.25;;;18.04;46.26
26563;BME280;14217;50.986;5.826;2024-03-02T08:15:52;99514.19;;;18.06;46.19
26563;BME280;14217;50.986;5.826;2024-03-02T08:20:54;99517.91;;;18.03;46.16
26563;BME280;14217;50.986;5.826;2024-03-02T08:25:56;99509.88;;;18.05;45.69
26563;BME280;14217;50.986;5.826;2024-03-02T08:30:58;99519.03;;;17.99;45.79
26563;BME280;14217;50.986;5.826;2024-03-02T08:36:00;99523.56;;;18.12;45.40
26563;BME280;14217;50.986;5.826;2024-03-02T08:41:03;99531.06;;;18.05;45.47
26563;BME280;14217;50.986;5.826;2024-03-02T08:46:05;99518.44;;;18.08;45.17
26563;BME280;14217;50.986;5.826;2024-03-02T08:51:07;99521.97;;;18.09;45.40
26563;BME280;14217;50.986;5.826;2024-03-02T08:56:12;99515.63;;;18.12;45.31
26563;BME280;14217;50.986;5.826;2024-03-02T09:01:14;99510.41;;;18.10;45.05
26563;BME280;14217;50.986;5.826;2024-03-02T09:06:17;99520.84;;;18.13;44.83
26563;BME280;14217;50.986;5.826;2024-03-02T09:11:19;99526.44;;;17.94;45.35
26563;BME280;14217;50.986;5.826;2024-03-02T09:16:21;99523.19;;;17.75;45.77
26563;BME280;14217;50.986;5.826;2024-03-02T09:21:23;99523.47;;;17.56;46.48
26563;BME280;14217;50.986;5.826;2024-03-02T09:26:27;99518.28;;;17.54;46.48
26563;BME280;14217;50.986;5.826;2024-03-02T09:31:29;99522.84;;;17.52;46.53
26563;BME280;14217;50.986;5.826;2024-03-02T09:36:31;99525.47;;;17.52;46.63
26563;BME280;14217;50.986;5.826;2024-03-02T09:41:33;99530.41;;;17.58;46.29
26563;BME280;14217;50.986;5.826;2024-03-02T09:46:35;99522.63;;;17.55;46.39
26563;BME280;14217;50.986;5.826;2024-03-02T09:51:39;99516.13;;;17.61;46.20
26563;BME280;14217;50.986;5.826;2024-03-02T09:56:42;99513.34;;;17.77;45.01
26563;BME280;14217;50.986;5.826;2024-03-02T10:02:00;99514.31;;;17.76;44.05
26563;BME280;14217;50.986;5.826;2024-03-02T10:07:13;99507.31;;;17.60;45.14
26563;BME280;14217;50.986;5.826;2024-03-02T10:12:17;99499.47;;;17.59;45.18
26563;BME280;14217;50.986;5.826;2024-03-02T10:17:19;99496.91;;;17.57;46.12
26563;BME280;14217;50.986;5.826;2024-03-02T10:22:23;99495.09;;;17.58;46.22
26563;BME280;14217;50.986;5.826;2024-03-02T10:27:27;99493.03;;;17.48;46.63
26563;BME280;14217;50.986;5.826;2024-03-02T10:32:29;99491.13;;;17.51;46.54
26563;BME280;14217;50.986;5.826;2024-03-02T10:37:32;99480.53;;;17.51;46.29
26563;BME280;14217;50.986;5.826;2024-03-02T10:42:35;99466.19;;;17.55;46.00
26563;BME280;14217;50.986;5.826;2024-03-02T10:47:38;99478.56;;;17.54;46.17
26563;BME280;14217;50.986;5.826;2024-03-02T10:52:43;99463.53;;;17.69;45.51
26563;BME280;14217;50.986;5.826;2024-03-02T10:57:54;99463.13;;;17.75;45.52
26563;BME280;14217;50.986;5.826;2024-03-02T11:03:04;99462.50;;;17.86;45.25
26563;BME280;14217;50.986;5.826;2024-03-02T11:08:13;99452.13;;;17.81;45.48
26563;BME280;14217;50.986;5.826;2024-03-02T11:13:22;99456.56;;;17.81;45.23
26563;BME280;14217;50.986;5.826;2024-03-02T11:18:26;99456.88;;;17.91;45.02
26563;BME280;14217;50.986;5.826;2024-03-02T11:23:32;99445.72;;;17.85;45.20
26563;BME280;14217;50.986;5.826;2024-03-02T11:28:35;99441.53;;;17.81;45.17
26563;BME280;14217;50.986;5.826;2024-03-02T11:33:40;99435.03;;;17.87;44.99
26563;BME280;14217;50.986;5.826;2024-03-02T11:38:43;99422.13;;;17.95;44.83
26563;BME280;14217;50.986;5.826;2024-03-02T11:43:47;99411.94;;;17.89;44.94
26563;BME280;14217;50.986;5.826;2024-03-02T11:48:50;99393.38;;;17.89;44.98
26563;BME280;14217;50.986;5.826;2024-03-02T11:53:54;99395.50;;;17.84;44.77
26563;BME280;14217;50.986;5.826;2024-03-02T11:58:56;99386.28;;;17.90;44.68
26563;BME280;14217;50.986;5.826;2024-03-02T12:03:59;99382.94;;;18.00;44.35
26563;BME280;14217;50.986;5.826;2024-03-02T12:09:01;99365.56;;;17.96;44.34
26563;BME280;14217;50.986;5.826;2024-03-02T12:14:03;99373.91;;;17.76;46.04
26563;BME280;14217;50.986;5.826;2024-03-02T12:19:06;99351.22;;;17.86;45.63
26563;BME280;14217;50.986;5.826;2024-03-02T12:24:08;99355.81;;;17.97;45.21
26563;BME280;14217;50.986;5.826;2024-03-02T12:29:10;99355.09;;;18.07;44.90
26563;BME280;14217;50.986;5.826;2024-03-02T12:34:13;99346.28;;;18.07;44.90
26563;BME280;14217;50.986;5.826;2024-03-02T12:39:17;99343.53;;;18.08;44.86
26563;BME280;14217;50.986;5.826;2024-03-02T12:44:20;99341.00;;;18.07;44.55
26563;BME280;14217;50.986;5.826;2024-03-02T12:49:22;99340.25;;;18.05;44.63
26563;BME280;14217;50.986;5.826;2024-03-02T12:54:24;99345.41;;;18.06;44.58
26563;BME280;14217;50.986;5.826;2024-03-02T12:59:28;99339.50;;;18.03;44.63
26563;BME280;14217;50.986;5.826;2024-03-02T13:04:30;99337.69;;;18.03;44.74
26563;BME280;14217;50.986;5.826;2024-03-02T13:09:32;99331.25;;;18.07;44.49
26563;BME280;14217;50.986;5.826;2024-03-02T13:14:35;99328.91;;;18.03;44.72
26563;BME280;14217;50.986;5.826;2024-03-02T13:19:37;99326.88;;;18.06;44.45
26563;BME280;14217;50.986;5.826;2024-03-02T13:24:39;99315.78;;;18.14;44.18
26563;BME280;14217;50.986;5.826;2024-03-02T13:29:44;99324.56;;;18.15;44.36
26563;BME280;14217;50.986;5.826;2024-03-02T13:34:47;99324.88;;;18.10;44.38
26563;BME280;14217;50.986;5.826;2024-03-02T13:39:49;99305.25;;;18.13;44.26
26563;BME280;14217;50.986;5.826;2024-03-02T13:44:51;99308.97;;;18.10;44.24
26563;BME280;14217;50.986;5.826;2024-03-02T13:49:54;99297.44;;;18.11;44.12
26563;BME280;14217;50.986;5.826;2024-03-02T13:54:56;99296.78;;;18.07;44.17
26563;BME280;14217;50.986;5.826;2024-03-02T13:59:58;99293.72;;;18.14;44.23
26563;BME280;14217;50.986;5.826;2024-03-02T14:05:00;99286.38;;;18.04;44.58
26563;BME280;14217;50.986;5.826;2024-03-02T14:10:02;99308.13;;;18.10;44.26
26563;BME280;14217;50.986;5.826;2024-03-02T14:15:05;99282.28;;;18.13;44.03
26563;BME280;14217;50.986;5.826;2024-03-02T14:20:07;99296.78;;;18.07;44.34
26563;BME280;14217;50.986;5.826;2024-03-02T14:25:12;99294.97;;;18.08;44.40
26563;BME280;14217;50.986;5.826;2024-03-02T14:30:14;99284.28;;;18.10;44.23
26563;BME280;14217;50.986;5.826;2024-03-02T14:35:16;99287.13;;;18.06;44.18
26563;BME280;14217;50.986;5.826;2024-03-02T14:40:18;99279.81;;;18.10;44.39
26563;BME280;14217;50.986;5.826;2024-03-02T14:45:20;99281.72;;;18.08;44.31
26563;BME280;14217;50.986;5.826;2024-03-02T14:50:22;99276.31;;;18.10;44.26
26563;BME280;14217;50.986;5.826;2024-03-02T14:55:24;99280.47;;;18.14;44.19
26563;BME280;14217;50.986;5.826;2024-03-02T15:00:26;99282.06;;;18.16;44.02
26563;BME280;14217;50.986;5.826;2024-03-02T15:05:28;99273.16;;;18.17;44.18
26563;BME280;14217;50.986;5.826;2024-03-02T15:10:31;99277.59;;;18.17;44.02
26563;BME280;14217;50.986;5.826;2024-03-02T15:15:33;99276.75;;;18.16;43.87
26563;BME280;14217;50.986;5.826;2024-03-02T15:20:35;99277.16;;;18.10;44.03
26563;BME280;14217;50.986;5.826;2024-03-02T15:25:37;99271.22;;;18.06;44.54
26563;BME280;14217;50.986;5.826;2024-03-02T15:30:39;99272.56;;;17.86;46.38
26563;BME280;14217;50.986;5.826;2024-03-02T15:35:41;99274.38;;;17.86;45.97
26563;BME280;14217;50.986;5.826;2024-03-02T15:40:43;99273.41;;;17.87;45.97
26563;BME280;14217;50.986;5.826;2024-03-02T15:45:46;99267.63;;;17.80;46.02
26563;BME280;14217;50.986;5.826;2024-03-02T15:50:48;99253.38;;;17.83;45.86
26563;BME280;14217;50.986;5.826;2024-03-02T15:55:52;99243.34;;;18.01;45.15
26563;BME280;14217;50.986;5.826;2024-03-02T16:00:53;99243.66;;;17.96;45.25
26563;BME280;14217;50.986;5.826;2024-03-02T16:05:56;99234.75;;;17.97;45.37
26563;BME280;14217;50.986;5.826;2024-03-02T16:10:58;99233.59;;;18.01;45.29
26563;BME280;14217;50.986;5.826;2024-03-02T16:16:02;99230.44;;;18.09;44.82
26563;BME280;14217;50.986;5.826;2024-03-02T16:21:04;99229.44;;;17.97;45.07
26563;BME280;14217;50.986;5.826;2024-03-02T16:26:07;99224.38;;;18.07;45.08
26563;BME280;14217;50.986;5.826;2024-03-02T16:31:09;99219.81;;;18.09;45.00
26563;BME280;14217;50.986;5.826;2024-03-02T16:36:11;99233.69;;;18.13;44.78
26563;BME280;14217;50.986;5.826;2024-03-02T16:41:13;99221.91;;;17.91;45.36
26563;BME280;14217;50.986;5.826;2024-03-02T16:46:18;99218.63;;;18.00;45.18
26563;BME280;14217;50.986;5.826;2024-03-02T16:51:20;99227.97;;;18.06;44.90
26563;BME280;14217;50.986;5.826;2024-03-02T16:56:22;99225.41;;;18.04;45.27
26563;BME280;14217;50.986;5.826;2024-03-02T17:01:25;99222.16;;;18.01;45.26
26563;BME280;14217;50.986;5.826;2024-03-02T17:06:27;99221.84;;;18.05;45.03
26563;BME280;14217;50.986;5.826;2024-03-02T17:11:29;99231.25;;;17.84;45.57
26563;BME280;14217;50.986;5.826;2024-03-02T17:16:32;99232.84;;;17.99;45.46
26563;BME280;14217;50.986;5.826;2024-03-02T17:21:35;99237.97;;;18.15;44.93
26563;BME280;14217;50.986;5.826;2024-03-02T17:26:37;99245.59;;;18.07;45.18
26563;BME280;14217;50.986;5.826;2024-03-02T17:31:41;99247.28;;;18.08;44.96
26563;BME280;14217;50.986;5.826;2024-03-02T17:36:43;99250.97;;;18.05;44.95
26563;BME280;14217;50.986;5.826;2024-03-02T17:41:46;99243.25;;;18.15;44.87
26563;BME280;14217;50.986;5.826;2024-03-02T17:46:48;99256.78;;;17.98;45.20
26563;BME280;14217;50.986;5.826;2024-03-02T17:51:50;99245.00;;;17.89;45.51
26563;BME280;14217;50.986;5.826;2024-03-02T17:56:52;99247.75;;;17.87;45.67
26563;BME280;14217;50.986;5.826;2024-03-02T18:01:54;99253.72;;;17.91;45.50
26563;BME280;14217;50.986;5.826;2024-03-02T18:06:56;99260.06;;;17.88;45.87
26563;BME280;14217;50.986;5.826;2024-03-02T18:12:01;99254.78;;;17.88;45.64
26563;BME280;14217;50.986;5.826;2024-03-02T18:17:06;99255.63;;;17.89;45.71
26563;BME280;14217;50.986;5.826;2024-03-02T18:22:08;99241.22;;;17.93;45.78
26563;BME280;14217;50.986;5.826;2024-03-02T18:27:10;99246.53;;;18.06;45.38
26563;BME280;14217;50.986;5.826;2024-03-02T18:32:12;99233.91;;;18.10;45.31
26563;BME280;14217;50.986;5.826;2024-03-02T18:37:18;99229.66;;;17.94;45.58
26563;BME280;14217;50.986;5.826;2024-03-02T18:42:23;99233.06;;;17.96;45.43
26563;BME280;14217;50.986;5.826;2024-03-02T18:47:26;99243.84;;;17.93;45.30
26563;BME280;14217;50.986;5.826;2024-03-02T18:52:28;99238.56;;;17.93;45.54
26563;BME280;14217;50.986;5.826;2024-03-02T18:57:30;99247.50;;;17.78;45.54
26563;BME280;14217;50.986;5.826;2024-03-02T19:02:33;99240.41;;;17.78;45.78
26563;BME280;14217;50.986;5.826;2024-03-02T19:07:35;99239.97;;;17.72;45.66
26563;BME280;14217;50.986;5.826;2024-03-02T19:12:37;99245.44;;;17.68;45.94
26563;BME280;14217;50.986;5.826;2024-03-02T19:17:43;99233.91;;;17.70;45.68
26563;BME280;14217;50.986;5.826;2024-03-02T19:22:46;99234.63;;;17.86;45.59
26563;BME280;14217;50.986;5.826;2024-03-02T19:27:51;99236.75;;;17.94;45.43
26563;BME280;14217;50.986;5.826;2024-03-02T19:32:53;99237.06;;;17.89;45.59
26563;BME280;14217;50.986;5.826;2024-03-02T19:37:55;99234.22;;;17.92;45.18
26563;BME280;14217;50.986;5.826;2024-03-02T19:42:57;99234.97;;;17.94;45.32
26563;BME280;14217;50.986;5.826;2024-03-02T19:47:59;99245.56;;;17.94;45.18
26563;BME280;14217;50.986;5.826;2024-03-02T19:53:02;99246.50;;;17.93;45.10
26563;BME280;14217;50.986;5.826;2024-03-02T19:58:04;99254.78;;;17.88;45.52
26563;BME280;14217;50.986;5.826;2024-03-02T20:03:07;99259.97;;;17.90;45.26
26563;BME280;14217;50.986;5.826;2024-03-02T20:08:09;99249.16;;;17.93;45.13
26563;BME280;14217;50.986;5.826;2024-03-02T20:13:11;99252.22;;;17.87;45.35
26563;BME280;14217;50.986;5.826;2024-03-02T20:18:13;99253.94;;;17.88;45.42
26563;BME280;14217;50.986;5.826;2024-03-02T20:23:15;99258.81;;;17.94;45.31
26563;BME280;14217;50.986;5.826;2024-03-02T20:28:17;99259.84;;;17.92;45.34
26563;BME280;14217;50.986;5.826;2024-03-02T20:33:19;99261.25;;;17.97;44.91
26563;BME280;14217;50.986;5.826;2024-03-02T20:38:21;99250.88;;;17.94;45.12
26563;BME280;14217;50.986;5.826;2024-03-02T20:43:24;99240.69;;;17.88;45.04
26563;BME280;14217;50.986;5.826;2024-03-02T20:48:26;99240.56;;;17.90;45.29
26563;BME280;14217;50.986;5.826;2024-03-02T20:53:30;99255.41;;;17.92;45.07
26563;BME280;14217;50.986;5.826;2024-03-02T20:58:32;99240.56;;;17.90;45.33
26563;BME280;14217;50.986;5.826;2024-03-02T21:03:35;99249.16;;;17.93;45.26
26563;BME280;14217;50.986;5.826;2024-03-02T21:08:39;99251.91;;;17.92;45.12
26563;BME280;14217;50.986;5.826;2024-03-02T21:13:41;99252.97;;;17.89;45.04
26563;BME280;14217;50.986;5.826;2024-03-02T21:18:44;99244.81;;;17.92;45.21
26563;BME280;14217;50.986;5.826;2024-03-02T21:23:46;99244.91;;;17.91;45.28
26563;BME280;14217;50.986;5.826;2024-03-02T21:28:48;99239.41;;;17.94;45.21
26563;BME280;14217;50.986;5.826;2024-03-02T21:33:50;99254.69;;;17.90;44.98
26563;BME280;14217;50.986;5.826;2024-03-02T21:38:52;99241.94;;;17.95;44.94
26563;BME280;14217;50.986;5.826;2024-03-02T21:43:54;99235.41;;;18.01;44.61
26563;BME280;14217;50.986;5.826;2024-03-02T21:48:56;99238.16;;;17.99;44.89
26563;BME280;14217;50.986;5.826;2024-03-02T21:53:58;99237.31;;;17.99;44.72
26563;BME280;14217;50.986;5.826;2024-03-02T21:59:00;99227.22;;;17.91;44.96
26563;BME280;14217;50.986;5.826;2024-03-02T22:04:02;99230.59;;;17.93;44.80
26563;BME280;14217;50.986;5.826;2024-03-02T22:09:05;99228.50;;;17.98;45.05
26563;BME280;14217;50.986;5.826;2024-03-02T22:14:07;99219.81;;;17.96;45.43
26563;BME280;14217;50.986;5.826;2024-03-02T22:19:09;99210.16;;;17.95;45.45
26563;BME280;14217;50.986;5.826;2024-03-02T22:24:12;99223.50;;;17.94;45.62
26563;BME280;14217;50.986;5.826;2024-03-02T22:29:16;99209.63;;;17.90;45.88
26563;BME280;14217;50.986;5.826;2024-03-02T22:34:18;99221.59;;;17.96;45.74
26563;BME280;14217;50.986;5.826;2024-03-02T22:39:20;99209.41;;;18.06;45.13
26563;BME280;14217;50.986;5.826;2024-03-02T22:44:22;99201.69;;;18.03;45.21
26563;BME280;14217;50.986;5.826;2024-03-02T22:49:24;99215.97;;;18.00;45.29
26563;BME280;14217;50.986;5.826;2024-03-02T22:54:26;99212.81;;;17.95;45.51
26563;BME280;14217;50.986;5.826;2024-03-02T22:59:28;99216.84;;;18.01;45.35
26563;BME280;14217;50.986;5.826;2024-03-02T23:04:30;99208.03;;;18.00;45.26
26563;BME280;14217;50.986;5.826;2024-03-02T23:09:33;99204.13;;;18.06;45.10
26563;BME280;14217;50.986;5.826;2024-03-02T23:14:36;99209.31;;;18.07;45.03
26563;BME280;14217;50.986;5.826;2024-03-02T23:19:38;99204.22;;;18.04;44.99
26563;BME280;14217;50.986;5.826;2024-03-02T23:24:40;99206.34;;;18.12;44.85
26563;BME280;14217;50.986;5.826;2024-03-02T23:29:43;99206.66;;;18.07;45.07
26563;BME280;14217;50.986;5.826;2024-03-02T23:34:45;99210.06;;;17.97;45.36
26563;BME280;14217;50.986;5.826;2024-03-02T23:39:47;99197.66;;;17.97;47.15
26563;BME280;14217;50.986;5.826;2024-03-02T23:45:10;99183.88;;;17.92;46.51
26563;BME280;14217;50.986;5.826;2024-03-02T23:50:12;99184.50;;;17.96;46.07
26563;BME280;14217;50.986;5.826;2024-03-02T23:55:14;99183.88;;;18.05;46.01
